الصفحة الرئيسية
METAR-TAF:

METAR-TAF

مطار :

تشيتا, روسيا

دائرة عرض: 52-05N, خط طول: 113-29E, ارتفاع: 685 متر

مراقبة الطقس الحالي

تاريخ ووقت الإصدار 21 دقيقة قبل الساعة 07:00UTC
ريح 16 عقدة من الغرب
درجة الحرارة -23°درجة مئوية
الرطوبة 36%
ضغط 1014 hPa
الرؤية 10 كم أو أكثر

METAR: UIAA 190700Z 27008MPS 9999 NSC M23/M34 Q1014 R29/450155 NOSIG RMK QFE702/0937

زمن: 16:21 (07:21 UTC)

توقعات

تاريخ ووقت الإصدار 2ساعات و 21 دقيقة قبل الساعة 05:00UTC
التوقعات صالحة من19 الساعة 06 UTC إلى 20 الساعة 06 UTC
ريح 16 عقدة من الغرب/الشمال الغربي تتزايد حتى 29 عقدة
الرؤية 10 كم أو أكثر

TAF: UIAA 190500Z 1906/2006 29008G15MPS 9999 NSC

أرصاد الطقس والتوقعات من أكثر من 4000 مطار (تقارير الطقس للمطار METAR والتنبؤ بالطقس بالمطارTAF).

المحطات المتاحة هي النقط الصفراء والحمراء على الخريطة.

حرك المؤشر فوق النقطة لمعرفة اسم المحطة.

ثم انقر لمعرفة أرصاد وتوقعات الطقس.

لتغيير الخارطة: اضغط على الأزرار الخضراء مع رمز الصليب الأسود للتكبير. على الزر الأخضر مع شرطة للتصغير، أو على الأسهم الخضراء للخرائط المجاورة.


METAR-TAF: